Portada
METAR-TAF:

METAR-TAF

Aeroports :

Base aèria

Santos, São Paulo, Brasil

latitud: 23-56S, longitud: 046-18W, altitud: 3 m

Observació

L'informe es va fer fa 1 hora i 27 minuts, a les 21:00 UTC
Vent 3 kt del Sud, variant entre Sud-Est i Sud
Temperatura 21°C
Humitat 100%
Pressió 1016 hPa
Visibilitat: 2000 m
Cel cobert a una alçada de 500 ft
plugim, boirina

METAR: SBST 292100Z 17003KT 130V190 2000 -DZ BR OVC005 21/21 Q1016

Hora: 19:27 (22:27 UTC)


TAF: manca

Observacions i pronòstics meteorològics de més de 4000 aeroports (METAR i TAF).

Les estacions disponibles són els punts grocs i vermells al mapa.

Posi el ratolí al punt desitjat per veure el nom de l'estació.

Feu clic per veure les observacions i els pronòstics meteorològics.

Per canviar el mapa: feu clic els botons verds amb una creu de color negre per apropar; al botó verd amb un guió per allunyar la imatge; o en les fletxes verdes per a mapes adjacents.


METAR-TAF: